sensor_id;sensor_type;location;lat;lon;timestamp;temperature;humidity
21811;DHT22;11067;48.788;9.208;2022-10-16T00:02:20;16.70;99.90
21811;DHT22;11067;48.788;9.208;2022-10-16T00:04:45;16.60;99.90
21811;DHT22;11067;48.788;9.208;2022-10-16T00:07:11;16.60;99.90
21811;DHT22;11067;48.788;9.208;2022-10-16T00:09:37;16.60;99.90
21811;DHT22;11067;48.788;9.208;2022-10-16T00:12:02;16.60;99.90
21811;DHT22;11067;48.788;9.208;2022-10-16T00:14:29;16.50;99.90
21811;DHT22;11067;48.788;9.208;2022-10-16T00:16:55;16.50;99.90
21811;DHT22;11067;48.788;9.208;2022-10-16T00:19:21;16.50;99.90
21811;DHT22;11067;48.788;9.208;2022-10-16T00:21:46;16.40;99.90
21811;DHT22;11067;48.788;9.208;2022-10-16T00:24:13;16.40;99.90
21811;DHT22;11067;48.788;9.208;2022-10-16T00:26:39;16.30;99.90
21811;DHT22;11067;48.788;9.208;2022-10-16T00:29:05;16.20;99.90
21811;DHT22;11067;48.788;9.208;2022-10-16T00:31:31;16.20;99.90
21811;DHT22;11067;48.788;9.208;2022-10-16T00:33:57;16.10;99.90
21811;DHT22;11067;48.788;9.208;2022-10-16T00:36:24;16.00;99.90
21811;DHT22;11067;48.788;9.208;2022-10-16T00:38:51;16.10;99.90
21811;DHT22;11067;48.788;9.208;2022-10-16T00:41:18;16.20;99.90
21811;DHT22;11067;48.788;9.208;2022-10-16T00:43:47;16.10;99.90
21811;DHT22;11067;48.788;9.208;2022-10-16T00:46:25;16.10;99.90
21811;DHT22;11067;48.788;9.208;2022-10-16T00:48:59;16.10;99.90
21811;DHT22;11067;48.788;9.208;2022-10-16T00:51:37;16.20;99.90
21811;DHT22;11067;48.788;9.208;2022-10-16T00:54:08;16.20;99.90
21811;DHT22;11067;48.788;9.208;2022-10-16T00:56:34;16.20;99.90
21811;DHT22;11067;48.788;9.208;2022-10-16T00:59:04;16.20;99.90
21811;DHT22;11067;48.788;9.208;2022-10-16T01:01:33;16.20;99.90
21811;DHT22;11067;48.788;9.208;2022-10-16T01:03:58;16.20;99.90
21811;DHT22;11067;48.788;9.208;2022-10-16T01:06:36;16.30;99.90
21811;DHT22;11067;48.788;9.208;2022-10-16T01:09:54;16.30;99.90
21811;DHT22;11067;48.788;9.208;2022-10-16T01:12:10;16.30;99.90
21811;DHT22;11067;48.788;9.208;2022-10-16T01:20:23;16.30;99.90
21811;DHT22;11067;48.788;9.208;2022-10-16T01:22:59;16.30;99.90
21811;DHT22;11067;48.788;9.208;2022-10-16T01:28:14;16.40;99.90
21811;DHT22;11067;48.788;9.208;2022-10-16T01:30:44;16.40;99.90
21811;DHT22;11067;48.788;9.208;2022-10-16T01:33:20;16.40;99.90
21811;DHT22;11067;48.788;9.208;2022-10-16T01:35:50;16.50;99.90
21811;DHT22;11067;48.788;9.208;2022-10-16T01:38:23;16.50;99.90
21811;DHT22;11067;48.788;9.208;2022-10-16T01:40:54;16.50;99.90
21811;DHT22;11067;48.788;9.208;2022-10-16T01:43:27;16.60;99.90
21811;DHT22;11067;48.788;9.208;2022-10-16T01:45:57;16.50;99.90
21811;DHT22;11067;48.788;9.208;2022-10-16T01:48:23;16.60;99.90
21811;DHT22;11067;48.788;9.208;2022-10-16T01:50:56;16.60;99.90
21811;DHT22;11067;48.788;9.208;2022-10-16T01:53:23;16.60;99.90
21811;DHT22;11067;48.788;9.208;2022-10-16T01:55:50;16.50;99.90
21811;DHT22;11067;48.788;9.208;2022-10-16T01:58:17;16.50;99.90
21811;DHT22;11067;48.788;9.208;2022-10-16T02:00:45;16.50;99.90
21811;DHT22;11067;48.788;9.208;2022-10-16T02:03:13;16.40;99.90
21811;DHT22;11067;48.788;9.208;2022-10-16T02:05:51;16.40;99.90
21811;DHT22;11067;48.788;9.208;2022-10-16T02:08:17;16.30;99.90
21811;DHT22;11067;48.788;9.208;2022-10-16T02:10:43;16.40;99.90
21811;DHT22;11067;48.788;9.208;2022-10-16T02:13:17;16.40;99.90
21811;DHT22;11067;48.788;9.208;2022-10-16T02:15:43;16.30;99.90
21811;DHT22;11067;48.788;9.208;2022-10-16T02:18:09;16.20;99.90
21811;DHT22;11067;48.788;9.208;2022-10-16T02:21:04;16.20;99.90
21811;DHT22;11067;48.788;9.208;2022-10-16T02:23:48;16.20;99.90
21811;DHT22;11067;48.788;9.208;2022-10-16T02:26:24;16.20;99.90
21811;DHT22;11067;48.788;9.208;2022-10-16T02:28:55;16.20;99.90
21811;DHT22;11067;48.788;9.208;2022-10-16T02:31:28;16.20;99.90
21811;DHT22;11067;48.788;9.208;2022-10-16T02:33:55;16.10;99.90
21811;DHT22;11067;48.788;9.208;2022-10-16T02:36:23;16.10;99.90
21811;DHT22;11067;48.788;9.208;2022-10-16T02:38:49;16.00;99.90
21811;DHT22;11067;48.788;9.208;2022-10-16T02:41:15;16.10;99.90
21811;DHT22;11067;48.788;9.208;2022-10-16T02:43:40;16.10;99.90
21811;DHT22;11067;48.788;9.208;2022-10-16T02:46:06;16.10;99.90
21811;DHT22;11067;48.788;9.208;2022-10-16T02:48:31;16.00;99.90
21811;DHT22;11067;48.788;9.208;2022-10-16T02:50:57;16.10;99.90
21811;DHT22;11067;48.788;9.208;2022-10-16T02:53:23;16.00;99.90
21811;DHT22;11067;48.788;9.208;2022-10-16T02:55:48;16.00;99.90
21811;DHT22;11067;48.788;9.208;2022-10-16T02:58:14;16.00;99.90
21811;DHT22;11067;48.788;9.208;2022-10-16T03:00:39;15.90;99.90
21811;DHT22;11067;48.788;9.208;2022-10-16T03:03:05;15.90;99.90
21811;DHT22;11067;48.788;9.208;2022-10-16T03:05:30;15.90;99.90
21811;DHT22;11067;48.788;9.208;2022-10-16T03:07:56;15.90;99.90
21811;DHT22;11067;48.788;9.208;2022-10-16T03:10:21;15.90;99.90
21811;DHT22;11067;48.788;9.208;2022-10-16T03:12:47;15.90;99.90
21811;DHT22;11067;48.788;9.208;2022-10-16T03:15:12;15.80;99.90
21811;DHT22;11067;48.788;9.208;2022-10-16T03:17:38;15.80;99.90
21811;DHT22;11067;48.788;9.208;2022-10-16T03:20:04;15.80;99.90
21811;DHT22;11067;48.788;9.208;2022-10-16T03:22:29;15.80;99.90
21811;DHT22;11067;48.788;9.208;2022-10-16T03:24:55;15.70;99.90
21811;DHT22;11067;48.788;9.208;2022-10-16T03:27:20;15.70;99.90
21811;DHT22;11067;48.788;9.208;2022-10-16T03:29:46;15.70;99.90
21811;DHT22;11067;48.788;9.208;2022-10-16T03:32:12;15.70;99.90
21811;DHT22;11067;48.788;9.208;2022-10-16T03:34:37;15.60;99.90
21811;DHT22;11067;48.788;9.208;2022-10-16T03:37:03;15.60;99.90
21811;DHT22;11067;48.788;9.208;2022-10-16T03:39:28;15.50;99.90
21811;DHT22;11067;48.788;9.208;2022-10-16T03:41:54;15.50;99.90
21811;DHT22;11067;48.788;9.208;2022-10-16T03:44:19;15.50;99.90
21811;DHT22;11067;48.788;9.208;2022-10-16T03:46:45;15.50;99.90
21811;DHT22;11067;48.788;9.208;2022-10-16T03:49:10;15.50;99.90
21811;DHT22;11067;48.788;9.208;2022-10-16T03:51:36;15.40;99.90
21811;DHT22;11067;48.788;9.208;2022-10-16T03:54:02;15.40;99.90
21811;DHT22;11067;48.788;9.208;2022-10-16T03:56:27;15.40;99.90
21811;DHT22;11067;48.788;9.208;2022-10-16T03:58:53;15.30;99.90
21811;DHT22;11067;48.788;9.208;2022-10-16T04:01:18;15.30;99.90
21811;DHT22;11067;48.788;9.208;2022-10-16T04:03:44;15.30;99.90
21811;DHT22;11067;48.788;9.208;2022-10-16T04:06:09;15.30;99.90
21811;DHT22;11067;48.788;9.208;2022-10-16T04:08:35;15.30;99.90
21811;DHT22;11067;48.788;9.208;2022-10-16T04:11:02;15.30;99.90
21811;DHT22;11067;48.788;9.208;2022-10-16T04:13:28;15.30;99.90
21811;DHT22;11067;48.788;9.208;2022-10-16T04:15:53;15.30;99.90
21811;DHT22;11067;48.788;9.208;2022-10-16T04:18:19;15.30;99.90
21811;DHT22;11067;48.788;9.208;2022-10-16T04:20:44;15.20;99.90
21811;DHT22;11067;48.788;9.208;2022-10-16T04:23:10;15.20;99.90
21811;DHT22;11067;48.788;9.208;2022-10-16T04:25:36;15.20;99.90
21811;DHT22;11067;48.788;9.208;2022-10-16T04:28:01;15.20;99.90
21811;DHT22;11067;48.788;9.208;2022-10-16T04:30:27;15.20;99.90
21811;DHT22;11067;48.788;9.208;2022-10-16T04:32:53;15.20;99.90
21811;DHT22;11067;48.788;9.208;2022-10-16T04:35:19;15.20;99.90
21811;DHT22;11067;48.788;9.208;2022-10-16T04:37:46;15.20;99.90
21811;DHT22;11067;48.788;9.208;2022-10-16T04:40:12;15.10;99.90
21811;DHT22;11067;48.788;9.208;2022-10-16T04:42:37;15.10;99.90
21811;DHT22;11067;48.788;9.208;2022-10-16T04:45:04;15.10;99.90
21811;DHT22;11067;48.788;9.208;2022-10-16T04:47:30;15.10;99.90
21811;DHT22;11067;48.788;9.208;2022-10-16T04:49:56;15.20;99.90
21811;DHT22;11067;48.788;9.208;2022-10-16T04:52:22;15.20;99.90
21811;DHT22;11067;48.788;9.208;2022-10-16T04:54:50;15.20;99.90
21811;DHT22;11067;48.788;9.208;2022-10-16T04:57:16;15.20;99.90
21811;DHT22;11067;48.788;9.208;2022-10-16T04:59:41;15.20;99.90
21811;DHT22;11067;48.788;9.208;2022-10-16T05:02:07;15.10;99.90
21811;DHT22;11067;48.788;9.208;2022-10-16T05:04:33;15.10;99.90
21811;DHT22;11067;48.788;9.208;2022-10-16T05:06:58;15.20;99.90
21811;DHT22;11067;48.788;9.208;2022-10-16T05:09:24;15.20;99.90
21811;DHT22;11067;48.788;9.208;2022-10-16T05:11:49;15.20;99.90
21811;DHT22;11067;48.788;9.208;2022-10-16T05:14:15;15.10;99.90
21811;DHT22;11067;48.788;9.208;2022-10-16T05:16:40;15.10;99.90
21811;DHT22;11067;48.788;9.208;2022-10-16T05:19:06;15.10;99.90
21811;DHT22;11067;48.788;9.208;2022-10-16T05:21:31;15.10;99.90
21811;DHT22;11067;48.788;9.208;2022-10-16T05:23:57;15.10;99.90
21811;DHT22;11067;48.788;9.208;2022-10-16T05:26:22;15.00;99.90
21811;DHT22;11067;48.788;9.208;2022-10-16T05:28:49;15.00;99.90
21811;DHT22;11067;48.788;9.208;2022-10-16T05:31:14;15.00;99.90
21811;DHT22;11067;48.788;9.208;2022-10-16T05:33:40;14.90;99.90
21811;DHT22;11067;48.788;9.208;2022-10-16T05:36:08;14.90;99.90
21811;DHT22;11067;48.788;9.208;2022-10-16T05:38:35;14.90;99.90
21811;DHT22;11067;48.788;9.208;2022-10-16T05:41:01;14.90;99.90
21811;DHT22;11067;48.788;9.208;2022-10-16T05:43:28;14.90;99.90
21811;DHT22;11067;48.788;9.208;2022-10-16T05:45:59;14.90;99.90
21811;DHT22;11067;48.788;9.208;2022-10-16T05:48:25;14.90;99.90
21811;DHT22;11067;48.788;9.208;2022-10-16T05:51:04;14.90;99.90
21811;DHT22;11067;48.788;9.208;2022-10-16T05:53:32;14.80;99.90
21811;DHT22;11067;48.788;9.208;2022-10-16T05:55:58;14.80;99.90
21811;DHT22;11067;48.788;9.208;2022-10-16T05:58:27;14.90;99.90
21811;DHT22;11067;48.788;9.208;2022-10-16T06:01:13;14.80;99.90
21811;DHT22;11067;48.788;9.208;2022-10-16T06:03:39;14.90;99.90
21811;DHT22;11067;48.788;9.208;2022-10-16T06:06:13;15.00;99.90
21811;DHT22;11067;48.788;9.208;2022-10-16T06:08:39;15.00;99.90
21811;DHT22;11067;48.788;9.208;2022-10-16T06:11:08;15.00;99.90
21811;DHT22;11067;48.788;9.208;2022-10-16T06:13:34;15.00;99.90
21811;DHT22;11067;48.788;9.208;2022-10-16T06:16:00;15.00;99.90
21811;DHT22;11067;48.788;9.208;2022-10-16T06:18:27;15.00;99.90
21811;DHT22;11067;48.788;9.208;2022-10-16T06:20:54;15.10;99.90
21811;DHT22;11067;48.788;9.208;2022-10-16T06:23:19;15.00;99.90
21811;DHT22;11067;48.788;9.208;2022-10-16T06:25:45;15.10;99.90
21811;DHT22;11067;48.788;9.208;2022-10-16T06:28:11;15.10;99.90
21811;DHT22;11067;48.788;9.208;2022-10-16T06:30:36;15.10;99.90
21811;DHT22;11067;48.788;9.208;2022-10-16T06:33:02;15.10;99.90
21811;DHT22;11067;48.788;9.208;2022-10-16T06:35:27;15.10;99.90
21811;DHT22;11067;48.788;9.208;2022-10-16T06:37:54;15.10;99.90
21811;DHT22;11067;48.788;9.208;2022-10-16T06:40:20;15.20;99.90
21811;DHT22;11067;48.788;9.208;2022-10-16T06:42:45;15.20;99.90
21811;DHT22;11067;48.788;9.208;2022-10-16T06:45:11;15.10;99.90
21811;DHT22;11067;48.788;9.208;2022-10-16T06:47:37;15.20;99.90
21811;DHT22;11067;48.788;9.208;2022-10-16T06:50:04;15.30;99.90
21811;DHT22;11067;48.788;9.208;2022-10-16T06:52:31;15.30;99.90
21811;DHT22;11067;48.788;9.208;2022-10-16T06:54:57;15.30;99.90
21811;DHT22;11067;48.788;9.208;2022-10-16T06:57:22;15.40;99.90
21811;DHT22;11067;48.788;9.208;2022-10-16T06:59:48;15.30;99.90
21811;DHT22;11067;48.788;9.208;2022-10-16T07:02:13;15.40;99.90
21811;DHT22;11067;48.788;9.208;2022-10-16T07:04:39;15.40;99.90
21811;DHT22;11067;48.788;9.208;2022-10-16T07:07:04;15.40;99.90
21811;DHT22;11067;48.788;9.208;2022-10-16T07:09:30;15.50;99.90
21811;DHT22;11067;48.788;9.208;2022-10-16T07:11:55;15.50;99.90
21811;DHT22;11067;48.788;9.208;2022-10-16T07:14:21;15.60;99.90
21811;DHT22;11067;48.788;9.208;2022-10-16T07:16:48;15.70;99.90
21811;DHT22;11067;48.788;9.208;2022-10-16T07:19:14;15.70;99.90
21811;DHT22;11067;48.788;9.208;2022-10-16T07:21:42;15.80;99.90
21811;DHT22;11067;48.788;9.208;2022-10-16T07:24:12;15.90;99.90
21811;DHT22;11067;48.788;9.208;2022-10-16T07:26:39;15.90;99.90
21811;DHT22;11067;48.788;9.208;2022-10-16T07:29:07;15.90;99.90
21811;DHT22;11067;48.788;9.208;2022-10-16T07:31:33;16.00;99.90
21811;DHT22;11067;48.788;9.208;2022-10-16T07:34:00;16.10;99.90
21811;DHT22;11067;48.788;9.208;2022-10-16T07:36:25;16.00;99.90
21811;DHT22;11067;48.788;9.208;2022-10-16T07:38:51;16.00;99.90
21811;DHT22;11067;48.788;9.208;2022-10-16T07:41:18;16.00;99.90
21811;DHT22;11067;48.788;9.208;2022-10-16T07:43:52;16.00;99.90
21811;DHT22;11067;48.788;9.208;2022-10-16T07:46:19;16.00;99.90
21811;DHT22;11067;48.788;9.208;2022-10-16T07:48:45;16.00;99.90
21811;DHT22;11067;48.788;9.208;2022-10-16T07:51:16;16.10;99.90
21811;DHT22;11067;48.788;9.208;2022-10-16T07:53:42;16.20;99.90
21811;DHT22;11067;48.788;9.208;2022-10-16T07:56:08;16.20;99.90
21811;DHT22;11067;48.788;9.208;2022-10-16T07:58:34;16.30;99.90
21811;DHT22;11067;48.788;9.208;2022-10-16T08:01:09;16.30;99.90
21811;DHT22;11067;48.788;9.208;2022-10-16T08:03:35;16.30;99.90
21811;DHT22;11067;48.788;9.208;2022-10-16T08:06:02;16.40;99.90
21811;DHT22;11067;48.788;9.208;2022-10-16T08:08:28;16.50;99.90
21811;DHT22;11067;48.788;9.208;2022-10-16T08:10:53;16.50;99.90
21811;DHT22;11067;48.788;9.208;2022-10-16T08:13:19;16.60;99.90
21811;DHT22;11067;48.788;9.208;2022-10-16T08:15:45;16.60;99.90
21811;DHT22;11067;48.788;9.208;2022-10-16T08:18:13;16.80;99.90
21811;DHT22;11067;48.788;9.208;2022-10-16T08:20:39;16.80;99.90
21811;DHT22;11067;48.788;9.208;2022-10-16T08:23:05;17.10;99.90
21811;DHT22;11067;48.788;9.208;2022-10-16T08:25:31;17.10;99.90
21811;DHT22;11067;48.788;9.208;2022-10-16T08:27:56;17.30;99.90
21811;DHT22;11067;48.788;9.208;2022-10-16T08:30:23;17.30;99.90
21811;DHT22;11067;48.788;9.208;2022-10-16T08:32:49;17.40;99.90
21811;DHT22;11067;48.788;9.208;2022-10-16T08:35:15;17.60;99.90
21811;DHT22;11067;48.788;9.208;2022-10-16T08:37:41;18.00;99.90
21811;DHT22;11067;48.788;9.208;2022-10-16T08:40:16;18.20;99.90
21811;DHT22;11067;48.788;9.208;2022-10-16T08:46:26;18.50;99.90
21811;DHT22;11067;48.788;9.208;2022-10-16T08:48:58;18.40;99.90
21811;DHT22;11067;48.788;9.208;2022-10-16T08:51:27;18.40;99.90
21811;DHT22;11067;48.788;9.208;2022-10-16T08:53:59;18.40;99.90
21811;DHT22;11067;48.788;9.208;2022-10-16T08:56:26;18.30;99.90
21811;DHT22;11067;48.788;9.208;2022-10-16T08:58:53;18.10;99.90
21811;DHT22;11067;48.788;9.208;2022-10-16T09:01:21;18.00;99.90
21811;DHT22;11067;48.788;9.208;2022-10-16T09:09:53;18.00;99.90
21811;DHT22;11067;48.788;9.208;2022-10-16T09:12:28;18.10;99.90
21811;DHT22;11067;48.788;9.208;2022-10-16T09:20:19;18.30;99.90
21811;DHT22;11067;48.788;9.208;2022-10-16T09:22:45;18.50;99.90
21811;DHT22;11067;48.788;9.208;2022-10-16T09:25:20;18.60;99.90
21811;DHT22;11067;48.788;9.208;2022-10-16T09:27:48;18.80;99.90
21811;DHT22;11067;48.788;9.208;2022-10-16T09:30:19;18.80;99.90
21811;DHT22;11067;48.788;9.208;2022-10-16T09:32:47;18.90;99.90
21811;DHT22;11067;48.788;9.208;2022-10-16T09:35:18;18.90;99.90
21811;DHT22;11067;48.788;9.208;2022-10-16T09:37:46;18.80;99.90
21811;DHT22;11067;48.788;9.208;2022-10-16T09:40:33;18.90;99.90
21811;DHT22;11067;48.788;9.208;2022-10-16T09:43:26;19.10;99.90
21811;DHT22;11067;48.788;9.208;2022-10-16T09:48:21;19.00;99.90
21811;DHT22;11067;48.788;9.208;2022-10-16T09:51:01;19.10;99.90
21811;DHT22;11067;48.788;9.208;2022-10-16T09:53:45;19.20;99.90
21811;DHT22;11067;48.788;9.208;2022-10-16T09:56:20;19.30;99.90
21811;DHT22;11067;48.788;9.208;2022-10-16T09:58:50;19.50;99.90
21811;DHT22;11067;48.788;9.208;2022-10-16T10:01:16;19.60;99.90
21811;DHT22;11067;48.788;9.208;2022-10-16T10:03:43;19.70;99.90
21811;DHT22;11067;48.788;9.208;2022-10-16T10:06:26;19.80;99.90
21811;DHT22;11067;48.788;9.208;2022-10-16T10:11:18;19.90;99.90
21811;DHT22;11067;48.788;9.208;2022-10-16T10:14:06;20.00;99.90
21811;DHT22;11067;48.788;9.208;2022-10-16T10:16:34;20.00;99.90
21811;DHT22;11067;48.788;9.208;2022-10-16T10:19:00;20.00;99.90
21811;DHT22;11067;48.788;9.208;2022-10-16T10:21:26;20.00;99.90
21811;DHT22;11067;48.788;9.208;2022-10-16T10:23:57;20.10;99.90
21811;DHT22;11067;48.788;9.208;2022-10-16T10:26:24;20.30;99.90
21811;DHT22;11067;48.788;9.208;2022-10-16T10:31:33;20.30;99.90
21811;DHT22;11067;48.788;9.208;2022-10-16T10:34:11;20.40;99.90
21811;DHT22;11067;48.788;9.208;2022-10-16T10:36:48;20.40;99.90
21811;DHT22;11067;48.788;9.208;2022-10-16T10:41:52;20.60;99.90
21811;DHT22;11067;48.788;9.208;2022-10-16T10:47:30;20.90;99.90
21811;DHT22;11067;48.788;9.208;2022-10-16T10:55:39;21.10;99.90
21811;DHT22;11067;48.788;9.208;2022-10-16T11:04:01;21.40;99.90
21811;DHT22;11067;48.788;9.208;2022-10-16T11:09:11;21.50;99.90
21811;DHT22;11067;48.788;9.208;2022-10-16T11:11:43;21.70;99.90
21811;DHT22;11067;48.788;9.208;2022-10-16T11:16:48;21.70;99.90
21811;DHT22;11067;48.788;9.208;2022-10-16T11:22:24;21.60;99.90
21811;DHT22;11067;48.788;9.208;2022-10-16T11:27:51;21.70;99.90
21811;DHT22;11067;48.788;9.208;2022-10-16T11:30:25;21.80;99.90
21811;DHT22;11067;48.788;9.208;2022-10-16T11:36:06;22.00;99.90
21811;DHT22;11067;48.788;9.208;2022-10-16T11:38:58;22.00;99.90
21811;DHT22;11067;48.788;9.208;2022-10-16T11:41:45;22.10;99.90
21811;DHT22;11067;48.788;9.208;2022-10-16T11:49:44;22.40;99.90
21811;DHT22;11067;48.788;9.208;2022-10-16T11:52:23;22.70;99.90
21811;DHT22;11067;48.788;9.208;2022-10-16T11:54:59;22.90;99.90
21811;DHT22;11067;48.788;9.208;2022-10-16T11:57:32;22.90;99.90
21811;DHT22;11067;48.788;9.208;2022-10-16T12:00:04;23.10;99.90
21811;DHT22;11067;48.788;9.208;2022-10-16T12:05:30;23.30;99.90
21811;DHT22;11067;48.788;9.208;2022-10-16T12:08:11;23.60;99.90
21811;DHT22;11067;48.788;9.208;2022-10-16T12:10:39;23.70;99.90
21811;DHT22;11067;48.788;9.208;2022-10-16T12:13:38;23.60;99.90
21811;DHT22;11067;48.788;9.208;2022-10-16T12:16:20;23.50;99.90
21811;DHT22;11067;48.788;9.208;2022-10-16T12:18:47;23.60;99.90
21811;DHT22;11067;48.788;9.208;2022-10-16T12:21:15;23.40;99.90
21811;DHT22;11067;48.788;9.208;2022-10-16T12:23:58;23.30;99.90
21811;DHT22;11067;48.788;9.208;2022-10-16T12:26:31;23.20;99.90
21811;DHT22;11067;48.788;9.208;2022-10-16T12:31:46;23.50;99.90
21811;DHT22;11067;48.788;9.208;2022-10-16T12:36:54;24.00;99.90
21811;DHT22;11067;48.788;9.208;2022-10-16T12:39:23;23.70;99.90
21811;DHT22;11067;48.788;9.208;2022-10-16T12:44:44;23.60;99.90
21811;DHT22;11067;48.788;9.208;2022-10-16T12:47:23;23.30;99.90
21811;DHT22;11067;48.788;9.208;2022-10-16T12:49:54;23.50;99.90
21811;DHT22;11067;48.788;9.208;2022-10-16T12:52:37;23.50;99.90
21811;DHT22;11067;48.788;9.208;2022-10-16T12:55:05;23.60;99.90
21811;DHT22;11067;48.788;9.208;2022-10-16T13:06:13;23.30;99.90
21811;DHT22;11067;48.788;9.208;2022-10-16T13:09:19;23.10;99.90
21811;DHT22;11067;48.788;9.208;2022-10-16T13:12:17;23.00;99.90
21811;DHT22;11067;48.788;9.208;2022-10-16T13:15:06;23.10;99.90
21811;DHT22;11067;48.788;9.208;2022-10-16T13:20:21;23.20;99.90
21811;DHT22;11067;48.788;9.208;2022-10-16T13:28:01;23.60;99.90
21811;DHT22;11067;48.788;9.208;2022-10-16T13:30:30;23.80;99.90
21811;DHT22;11067;48.788;9.208;2022-10-16T13:33:02;23.80;99.90
21811;DHT22;11067;48.788;9.208;2022-10-16T13:35:31;23.60;99.90
21811;DHT22;11067;48.788;9.208;2022-10-16T13:38:16;23.50;99.90
21811;DHT22;11067;48.788;9.208;2022-10-16T13:43:29;23.40;99.90
21811;DHT22;11067;48.788;9.208;2022-10-16T13:48:31;23.60;99.90
21811;DHT22;11067;48.788;9.208;2022-10-16T13:51:00;23.60;99.90
21811;DHT22;11067;48.788;9.208;2022-10-16T13:53:26;23.90;99.90
21811;DHT22;11067;48.788;9.208;2022-10-16T13:55:51;24.00;99.90
21811;DHT22;11067;48.788;9.208;2022-10-16T13:58:17;23.80;99.90
21811;DHT22;11067;48.788;9.208;2022-10-16T14:00:56;23.70;99.90
21811;DHT22;11067;48.788;9.208;2022-10-16T14:03:24;23.50;99.90
21811;DHT22;11067;48.788;9.208;2022-10-16T14:05:58;23.60;99.90
21811;DHT22;11067;48.788;9.208;2022-10-16T14:08:25;23.40;99.90
21811;DHT22;11067;48.788;9.208;2022-10-16T14:10:57;23.30;99.90
21811;DHT22;11067;48.788;9.208;2022-10-16T14:13:31;23.20;99.90
21811;DHT22;11067;48.788;9.208;2022-10-16T14:16:00;23.10;99.90
21811;DHT22;11067;48.788;9.208;2022-10-16T14:18:28;23.10;99.90
21811;DHT22;11067;48.788;9.208;2022-10-16T14:20:54;23.10;99.90
21811;DHT22;11067;48.788;9.208;2022-10-16T14:23:29;23.20;99.90
21811;DHT22;11067;48.788;9.208;2022-10-16T14:26:16;23.40;99.90
21811;DHT22;11067;48.788;9.208;2022-10-16T14:28:43;23.30;99.90
21811;DHT22;11067;48.788;9.208;2022-10-16T14:31:29;23.40;99.90
21811;DHT22;11067;48.788;9.208;2022-10-16T14:33:55;23.50;99.90
21811;DHT22;11067;48.788;9.208;2022-10-16T14:36:22;23.50;99.90
21811;DHT22;11067;48.788;9.208;2022-10-16T14:39:05;23.50;99.90
21811;DHT22;11067;48.788;9.208;2022-10-16T14:41:35;23.40;99.90
21811;DHT22;11067;48.788;9.208;2022-10-16T14:44:06;23.40;99.90
21811;DHT22;11067;48.788;9.208;2022-10-16T14:46:36;23.20;99.90
21811;DHT22;11067;48.788;9.208;2022-10-16T14:51:34;23.10;99.90
21811;DHT22;11067;48.788;9.208;2022-10-16T14:54:01;23.10;99.90
21811;DHT22;11067;48.788;9.208;2022-10-16T14:56:34;23.20;99.90
21811;DHT22;11067;48.788;9.208;2022-10-16T14:59:02;23.20;99.90
21811;DHT22;11067;48.788;9.208;2022-10-16T15:01:27;23.20;99.90
21811;DHT22;11067;48.788;9.208;2022-10-16T15:03:53;23.10;99.90
21811;DHT22;11067;48.788;9.208;2022-10-16T15:06:20;23.10;99.90
21811;DHT22;11067;48.788;9.208;2022-10-16T15:08:46;23.10;99.90
21811;DHT22;11067;48.788;9.208;2022-10-16T15:11:14;23.10;99.90
21811;DHT22;11067;48.788;9.208;2022-10-16T15:13:41;23.10;99.90
21811;DHT22;11067;48.788;9.208;2022-10-16T15:16:12;23.10;99.90
21811;DHT22;11067;48.788;9.208;2022-10-16T15:18:38;22.90;99.90
21811;DHT22;11067;48.788;9.208;2022-10-16T15:21:04;22.90;99.90
21811;DHT22;11067;48.788;9.208;2022-10-16T15:23:30;22.90;99.90
21811;DHT22;11067;48.788;9.208;2022-10-16T15:25:56;23.00;99.90
21811;DHT22;11067;48.788;9.208;2022-10-16T15:28:23;23.00;99.90
21811;DHT22;11067;48.788;9.208;2022-10-16T15:30:51;22.90;99.90
21811;DHT22;11067;48.788;9.208;2022-10-16T15:33:20;22.90;99.90
21811;DHT22;11067;48.788;9.208;2022-10-16T15:35:50;22.80;99.90
21811;DHT22;11067;48.788;9.208;2022-10-16T15:38:17;22.80;99.90
21811;DHT22;11067;48.788;9.208;2022-10-16T15:40:43;22.70;99.90
21811;DHT22;11067;48.788;9.208;2022-10-16T15:43:09;22.60;99.90
21811;DHT22;11067;48.788;9.208;2022-10-16T15:45:35;22.50;99.90
21811;DHT22;11067;48.788;9.208;2022-10-16T15:48:01;22.50;99.90
21811;DHT22;11067;48.788;9.208;2022-10-16T15:50:27;22.50;99.90
21811;DHT22;11067;48.788;9.208;2022-10-16T15:52:52;22.50;99.90
21811;DHT22;11067;48.788;9.208;2022-10-16T15:55:18;22.40;99.90
21811;DHT22;11067;48.788;9.208;2022-10-16T15:57:44;22.40;99.90
21811;DHT22;11067;48.788;9.208;2022-10-16T16:00:13;22.30;99.90
21811;DHT22;11067;48.788;9.208;2022-10-16T16:02:42;22.20;99.90
21811;DHT22;11067;48.788;9.208;2022-10-16T16:05:09;22.20;99.90
21811;DHT22;11067;48.788;9.208;2022-10-16T16:07:37;22.00;99.90
21811;DHT22;11067;48.788;9.208;2022-10-16T16:10:05;21.90;99.90
21811;DHT22;11067;48.788;9.208;2022-10-16T16:12:31;21.80;99.90
21811;DHT22;11067;48.788;9.208;2022-10-16T16:14:56;21.70;99.90
21811;DHT22;11067;48.788;9.208;2022-10-16T16:17:22;21.50;99.90
21811;DHT22;11067;48.788;9.208;2022-10-16T16:19:49;21.40;99.90
21811;DHT22;11067;48.788;9.208;2022-10-16T16:22:14;21.30;99.90
21811;DHT22;11067;48.788;9.208;2022-10-16T16:24:40;21.10;99.90
21811;DHT22;11067;48.788;9.208;2022-10-16T16:27:05;21.00;99.90
21811;DHT22;11067;48.788;9.208;2022-10-16T16:29:31;20.80;99.90
21811;DHT22;11067;48.788;9.208;2022-10-16T16:31:56;20.70;99.90
21811;DHT22;11067;48.788;9.208;2022-10-16T16:34:25;20.60;99.90
21811;DHT22;11067;48.788;9.208;2022-10-16T16:36:51;20.50;99.90
21811;DHT22;11067;48.788;9.208;2022-10-16T16:39:17;20.50;99.90
21811;DHT22;11067;48.788;9.208;2022-10-16T16:41:42;20.40;99.90
21811;DHT22;11067;48.788;9.208;2022-10-16T16:44:09;20.30;99.90
21811;DHT22;11067;48.788;9.208;2022-10-16T16:46:36;20.30;99.90
21811;DHT22;11067;48.788;9.208;2022-10-16T16:49:02;20.20;99.90
21811;DHT22;11067;48.788;9.208;2022-10-16T16:51:28;20.20;99.90
21811;DHT22;11067;48.788;9.208;2022-10-16T16:53:55;20.10;99.90
21811;DHT22;11067;48.788;9.208;2022-10-16T16:56:22;20.00;99.90
21811;DHT22;11067;48.788;9.208;2022-10-16T16:58:49;20.10;99.90
21811;DHT22;11067;48.788;9.208;2022-10-16T17:01:15;20.00;99.90
21811;DHT22;11067;48.788;9.208;2022-10-16T17:03:43;20.00;99.90
21811;DHT22;11067;48.788;9.208;2022-10-16T17:06:13;19.90;99.90
21811;DHT22;11067;48.788;9.208;2022-10-16T17:08:40;19.80;99.90
21811;DHT22;11067;48.788;9.208;2022-10-16T17:11:06;19.80;99.90
21811;DHT22;11067;48.788;9.208;2022-10-16T17:13:36;19.70;99.90
21811;DHT22;11067;48.788;9.208;2022-10-16T17:16:04;19.70;99.90
21811;DHT22;11067;48.788;9.208;2022-10-16T17:18:30;19.60;99.90
21811;DHT22;11067;48.788;9.208;2022-10-16T17:20:59;19.60;99.90
21811;DHT22;11067;48.788;9.208;2022-10-16T17:23:24;19.60;99.90
21811;DHT22;11067;48.788;9.208;2022-10-16T17:25:50;19.50;99.90